sensor_id;sensor_type;location;lat;lon;timestamp;P1;durP1;ratioP1;P2;durP2;ratioP2
56331;SDS011;42237;53.340;6.812;2022-11-15T00:00:49;34.80;;;21.60;;
56331;SDS011;42237;53.340;6.812;2022-11-15T00:03:16;38.03;;;20.90;;
56331;SDS011;42237;53.340;6.812;2022-11-15T00:05:43;36.85;;;21.25;;
56331;SDS011;42237;53.340;6.812;2022-11-15T00:08:09;35.30;;;20.27;;
56331;SDS011;42237;53.340;6.812;2022-11-15T00:10:35;36.63;;;21.20;;
56331;SDS011;42237;53.340;6.812;2022-11-15T00:13:05;37.47;;;21.70;;
56331;SDS011;42237;53.340;6.812;2022-11-15T00:15:34;35.00;;;20.67;;
56331;SDS011;42237;53.340;6.812;2022-11-15T00:18:03;35.08;;;21.23;;
56331;SDS011;42237;53.340;6.812;2022-11-15T00:20:30;34.65;;;20.58;;
56331;SDS011;42237;53.340;6.812;2022-11-15T00:22:56;36.38;;;20.58;;
56331;SDS011;42237;53.340;6.812;2022-11-15T00:25:22;35.92;;;20.45;;
56331;SDS011;42237;53.340;6.812;2022-11-15T00:27:47;38.97;;;21.90;;
56331;SDS011;42237;53.340;6.812;2022-11-15T00:30:13;37.90;;;20.42;;
56331;SDS011;42237;53.340;6.812;2022-11-15T00:32:39;36.65;;;20.88;;
56331;SDS011;42237;53.340;6.812;2022-11-15T00:35:04;35.97;;;20.42;;
56331;SDS011;42237;53.340;6.812;2022-11-15T00:37:30;35.88;;;20.35;;
56331;SDS011;42237;53.340;6.812;2022-11-15T00:39:56;33.80;;;20.17;;
56331;SDS011;42237;53.340;6.812;2022-11-15T00:42:21;36.70;;;20.38;;
56331;SDS011;42237;53.340;6.812;2022-11-15T00:44:47;34.28;;;20.83;;
56331;SDS011;42237;53.340;6.812;2022-11-15T00:47:13;36.83;;;19.85;;
56331;SDS011;42237;53.340;6.812;2022-11-15T00:49:38;36.25;;;20.58;;
56331;SDS011;42237;53.340;6.812;2022-11-15T00:52:04;35.28;;;21.27;;
56331;SDS011;42237;53.340;6.812;2022-11-15T00:54:30;35.28;;;19.55;;
56331;SDS011;42237;53.340;6.812;2022-11-15T00:56:55;33.53;;;19.95;;
56331;SDS011;42237;53.340;6.812;2022-11-15T00:59:21;37.10;;;21.55;;
56331;SDS011;42237;53.340;6.812;2022-11-15T01:01:47;37.45;;;20.75;;
56331;SDS011;42237;53.340;6.812;2022-11-15T01:04:13;34.85;;;19.75;;
56331;SDS011;42237;53.340;6.812;2022-11-15T01:06:39;35.25;;;20.13;;
56331;SDS011;42237;53.340;6.812;2022-11-15T01:09:04;36.50;;;20.70;;
56331;SDS011;42237;53.340;6.812;2022-11-15T01:11:30;37.60;;;20.58;;
56331;SDS011;42237;53.340;6.812;2022-11-15T01:13:56;36.15;;;21.25;;
56331;SDS011;42237;53.340;6.812;2022-11-15T01:16:21;37.78;;;21.17;;
56331;SDS011;42237;53.340;6.812;2022-11-15T01:18:47;36.72;;;20.48;;
56331;SDS011;42237;53.340;6.812;2022-11-15T01:21:14;34.75;;;20.48;;
56331;SDS011;42237;53.340;6.812;2022-11-15T01:23:42;38.17;;;21.70;;
56331;SDS011;42237;53.340;6.812;2022-11-15T01:26:09;39.70;;;22.90;;
56331;SDS011;42237;53.340;6.812;2022-11-15T01:28:38;35.78;;;21.48;;
56331;SDS011;42237;53.340;6.812;2022-11-15T01:31:06;35.80;;;20.20;;
56331;SDS011;42237;53.340;6.812;2022-11-15T01:33:34;37.55;;;21.65;;
56331;SDS011;42237;53.340;6.812;2022-11-15T01:36:05;35.55;;;22.17;;
56331;SDS011;42237;53.340;6.812;2022-11-15T01:38:36;36.30;;;22.13;;
56331;SDS011;42237;53.340;6.812;2022-11-15T01:51:00;34.47;;;22.17;;
56331;SDS011;42237;53.340;6.812;2022-11-15T01:53:30;36.75;;;21.85;;
56331;SDS011;42237;53.340;6.812;2022-11-15T01:55:57;39.85;;;24.23;;
56331;SDS011;42237;53.340;6.812;2022-11-15T01:58:27;36.13;;;22.33;;
56331;SDS011;42237;53.340;6.812;2022-11-15T02:00:53;37.38;;;23.23;;
56331;SDS011;42237;53.340;6.812;2022-11-15T02:03:18;40.25;;;23.40;;
56331;SDS011;42237;53.340;6.812;2022-11-15T02:05:45;42.65;;;25.83;;
56331;SDS011;42237;53.340;6.812;2022-11-15T02:08:11;40.65;;;24.48;;
56331;SDS011;42237;53.340;6.812;2022-11-15T02:10:45;37.58;;;22.35;;
56331;SDS011;42237;53.340;6.812;2022-11-15T02:13:12;37.22;;;23.05;;
56331;SDS011;42237;53.340;6.812;2022-11-15T02:15:48;37.97;;;22.77;;
56331;SDS011;42237;53.340;6.812;2022-11-15T02:18:57;36.67;;;22.25;;
56331;SDS011;42237;53.340;6.812;2022-11-15T02:27:03;34.13;;;19.73;;
56331;SDS011;42237;53.340;6.812;2022-11-15T02:35:12;36.95;;;20.27;;
56331;SDS011;42237;53.340;6.812;2022-11-15T02:38:06;34.58;;;20.20;;
56331;SDS011;42237;53.340;6.812;2022-11-15T02:40:45;35.47;;;19.95;;
56331;SDS011;42237;53.340;6.812;2022-11-15T02:43:27;30.70;;;18.58;;
56331;SDS011;42237;53.340;6.812;2022-11-15T02:49:24;34.08;;;19.33;;
56331;SDS011;42237;53.340;6.812;2022-11-15T02:51:54;34.25;;;19.42;;
56331;SDS011;42237;53.340;6.812;2022-11-15T02:54:25;32.75;;;19.90;;
56331;SDS011;42237;53.340;6.812;2022-11-15T02:56:54;37.17;;;20.45;;
56331;SDS011;42237;53.340;6.812;2022-11-15T02:59:33;36.03;;;20.10;;
56331;SDS011;42237;53.340;6.812;2022-11-15T03:04:48;31.73;;;19.13;;
56331;SDS011;42237;53.340;6.812;2022-11-15T03:07:54;37.55;;;19.92;;
56331;SDS011;42237;53.340;6.812;2022-11-15T03:13:58;36.40;;;20.05;;
56331;SDS011;42237;53.340;6.812;2022-11-15T03:22:09;31.25;;;19.42;;
56331;SDS011;42237;53.340;6.812;2022-11-15T03:24:37;37.33;;;20.63;;
56331;SDS011;42237;53.340;6.812;2022-11-15T03:27:05;36.25;;;20.25;;
56331;SDS011;42237;53.340;6.812;2022-11-15T03:29:35;37.42;;;20.00;;
56331;SDS011;42237;53.340;6.812;2022-11-15T03:32:06;35.08;;;19.35;;
56331;SDS011;42237;53.340;6.812;2022-11-15T03:34:43;36.05;;;20.27;;
56331;SDS011;42237;53.340;6.812;2022-11-15T03:37:15;37.05;;;19.92;;
56331;SDS011;42237;53.340;6.812;2022-11-15T03:39:42;36.95;;;20.45;;
56331;SDS011;42237;53.340;6.812;2022-11-15T03:44:54;35.78;;;20.52;;
56331;SDS011;42237;53.340;6.812;2022-11-15T03:47:39;40.30;;;20.63;;
56331;SDS011;42237;53.340;6.812;2022-11-15T03:50:17;36.20;;;19.85;;
56331;SDS011;42237;53.340;6.812;2022-11-15T03:52:45;33.75;;;18.90;;
56331;SDS011;42237;53.340;6.812;2022-11-15T03:55:13;34.50;;;19.38;;
56331;SDS011;42237;53.340;6.812;2022-11-15T03:57:41;39.33;;;20.77;;
56331;SDS011;42237;53.340;6.812;2022-11-15T04:00:07;35.63;;;18.40;;
56331;SDS011;42237;53.340;6.812;2022-11-15T04:02:34;31.77;;;18.45;;
56331;SDS011;42237;53.340;6.812;2022-11-15T04:05:00;35.50;;;18.95;;
56331;SDS011;42237;53.340;6.812;2022-11-15T04:07:25;38.33;;;18.90;;
56331;SDS011;42237;53.340;6.812;2022-11-15T04:09:51;46.55;;;20.52;;
56331;SDS011;42237;53.340;6.812;2022-11-15T04:12:29;35.20;;;18.55;;
56331;SDS011;42237;53.340;6.812;2022-11-15T04:15:04;38.80;;;19.98;;
56331;SDS011;42237;53.340;6.812;2022-11-15T04:17:39;41.17;;;19.27;;
56331;SDS011;42237;53.340;6.812;2022-11-15T04:22:59;41.03;;;20.85;;
56331;SDS011;42237;53.340;6.812;2022-11-15T04:25:45;41.85;;;20.45;;
56331;SDS011;42237;53.340;6.812;2022-11-15T04:28:14;41.95;;;19.85;;
56331;SDS011;42237;53.340;6.812;2022-11-15T04:30:39;40.63;;;21.38;;
56331;SDS011;42237;53.340;6.812;2022-11-15T04:33:05;49.20;;;22.63;;
56331;SDS011;42237;53.340;6.812;2022-11-15T04:35:31;47.65;;;23.27;;
56331;SDS011;42237;53.340;6.812;2022-11-15T04:37:57;49.20;;;23.92;;
56331;SDS011;42237;53.340;6.812;2022-11-15T04:40:23;53.42;;;25.13;;
56331;SDS011;42237;53.340;6.812;2022-11-15T04:42:49;51.40;;;25.73;;
56331;SDS011;42237;53.340;6.812;2022-11-15T04:45:14;59.20;;;28.65;;
56331;SDS011;42237;53.340;6.812;2022-11-15T04:47:42;59.20;;;27.27;;
56331;SDS011;42237;53.340;6.812;2022-11-15T04:50:10;54.10;;;26.15;;
56331;SDS011;42237;53.340;6.812;2022-11-15T04:52:39;43.28;;;22.00;;
56331;SDS011;42237;53.340;6.812;2022-11-15T04:55:06;41.85;;;21.65;;
56331;SDS011;42237;53.340;6.812;2022-11-15T04:57:32;47.70;;;22.33;;
56331;SDS011;42237;53.340;6.812;2022-11-15T04:59:57;46.60;;;21.77;;
56331;SDS011;42237;53.340;6.812;2022-11-15T05:02:23;48.28;;;22.17;;
56331;SDS011;42237;53.340;6.812;2022-11-15T05:04:49;44.40;;;22.85;;
56331;SDS011;42237;53.340;6.812;2022-11-15T05:07:14;47.42;;;22.00;;
56331;SDS011;42237;53.340;6.812;2022-11-15T05:09:40;43.63;;;21.20;;
56331;SDS011;42237;53.340;6.812;2022-11-15T05:12:05;48.95;;;22.67;;
56331;SDS011;42237;53.340;6.812;2022-11-15T05:14:31;43.08;;;21.30;;
56331;SDS011;42237;53.340;6.812;2022-11-15T05:16:57;43.13;;;20.35;;
56331;SDS011;42237;53.340;6.812;2022-11-15T05:19:22;42.33;;;21.60;;
56331;SDS011;42237;53.340;6.812;2022-11-15T05:21:48;46.67;;;21.40;;
56331;SDS011;42237;53.340;6.812;2022-11-15T05:24:14;41.95;;;22.00;;
56331;SDS011;42237;53.340;6.812;2022-11-15T05:26:39;52.40;;;21.38;;
56331;SDS011;42237;53.340;6.812;2022-11-15T05:29:05;49.97;;;23.27;;
56331;SDS011;42237;53.340;6.812;2022-11-15T05:31:31;42.38;;;22.13;;
56331;SDS011;42237;53.340;6.812;2022-11-15T05:33:56;51.92;;;23.15;;
56331;SDS011;42237;53.340;6.812;2022-11-15T05:36:27;51.38;;;24.52;;
56331;SDS011;42237;53.340;6.812;2022-11-15T05:39:06;52.20;;;23.33;;
56331;SDS011;42237;53.340;6.812;2022-11-15T05:41:33;57.42;;;25.20;;
56331;SDS011;42237;53.340;6.812;2022-11-15T05:44:07;52.65;;;25.23;;
56331;SDS011;42237;53.340;6.812;2022-11-15T05:46:34;66.88;;;26.77;;
56331;SDS011;42237;53.340;6.812;2022-11-15T05:49:02;63.45;;;27.58;;
56331;SDS011;42237;53.340;6.812;2022-11-15T05:51:31;56.35;;;27.08;;
56331;SDS011;42237;53.340;6.812;2022-11-15T05:53:57;66.30;;;27.20;;
56331;SDS011;42237;53.340;6.812;2022-11-15T05:56:24;76.50;;;29.55;;
56331;SDS011;42237;53.340;6.812;2022-11-15T05:58:51;376.58;;;187.77;;
56331;SDS011;42237;53.340;6.812;2022-11-15T06:01:19;158.43;;;97.13;;
56331;SDS011;42237;53.340;6.812;2022-11-15T06:03:44;209.48;;;136.63;;
56331;SDS011;42237;53.340;6.812;2022-11-15T06:06:10;104.68;;;62.72;;
56331;SDS011;42237;53.340;6.812;2022-11-15T06:08:36;102.00;;;49.63;;
56331;SDS011;42237;53.340;6.812;2022-11-15T06:11:05;87.45;;;38.08;;
56331;SDS011;42237;53.340;6.812;2022-11-15T06:13:31;103.15;;;45.67;;
56331;SDS011;42237;53.340;6.812;2022-11-15T06:15:58;94.10;;;45.22;;
56331;SDS011;42237;53.340;6.812;2022-11-15T06:18:24;87.10;;;47.30;;
56331;SDS011;42237;53.340;6.812;2022-11-15T06:20:49;87.95;;;37.15;;
56331;SDS011;42237;53.340;6.812;2022-11-15T06:23:15;76.88;;;32.60;;
56331;SDS011;42237;53.340;6.812;2022-11-15T06:25:41;83.80;;;36.20;;
56331;SDS011;42237;53.340;6.812;2022-11-15T06:28:06;77.85;;;39.63;;
56331;SDS011;42237;53.340;6.812;2022-11-15T06:30:32;88.25;;;40.00;;
56331;SDS011;42237;53.340;6.812;2022-11-15T06:32:58;107.53;;;50.05;;
56331;SDS011;42237;53.340;6.812;2022-11-15T06:35:26;119.50;;;60.03;;
56331;SDS011;42237;53.340;6.812;2022-11-15T06:37:51;112.05;;;48.15;;
56331;SDS011;42237;53.340;6.812;2022-11-15T06:40:17;98.82;;;40.85;;
56331;SDS011;42237;53.340;6.812;2022-11-15T06:42:42;94.75;;;38.40;;
56331;SDS011;42237;53.340;6.812;2022-11-15T06:45:08;105.60;;;39.22;;
56331;SDS011;42237;53.340;6.812;2022-11-15T06:47:34;105.10;;;44.47;;
56331;SDS011;42237;53.340;6.812;2022-11-15T06:50:00;118.38;;;59.17;;
56331;SDS011;42237;53.340;6.812;2022-11-15T06:52:25;80.13;;;36.95;;
56331;SDS011;42237;53.340;6.812;2022-11-15T06:54:51;88.47;;;37.72;;
56331;SDS011;42237;53.340;6.812;2022-11-15T06:57:17;85.82;;;37.17;;
56331;SDS011;42237;53.340;6.812;2022-11-15T06:59:42;90.95;;;40.03;;
56331;SDS011;42237;53.340;6.812;2022-11-15T07:02:12;87.32;;;35.03;;
56331;SDS011;42237;53.340;6.812;2022-11-15T07:04:38;89.57;;;36.45;;
56331;SDS011;42237;53.340;6.812;2022-11-15T07:07:04;85.13;;;34.28;;
56331;SDS011;42237;53.340;6.812;2022-11-15T07:09:30;73.55;;;33.33;;
56331;SDS011;42237;53.340;6.812;2022-11-15T07:11:55;92.75;;;34.85;;
56331;SDS011;42237;53.340;6.812;2022-11-15T07:14:21;87.40;;;41.30;;
56331;SDS011;42237;53.340;6.812;2022-11-15T07:16:47;103.47;;;60.17;;
56331;SDS011;42237;53.340;6.812;2022-11-15T07:19:12;104.85;;;69.70;;
56331;SDS011;42237;53.340;6.812;2022-11-15T07:21:38;85.43;;;38.30;;
56331;SDS011;42237;53.340;6.812;2022-11-15T07:24:04;85.03;;;39.70;;
56331;SDS011;42237;53.340;6.812;2022-11-15T07:26:30;81.90;;;40.30;;
56331;SDS011;42237;53.340;6.812;2022-11-15T07:28:55;111.50;;;70.65;;
56331;SDS011;42237;53.340;6.812;2022-11-15T07:31:21;86.75;;;35.60;;
56331;SDS011;42237;53.340;6.812;2022-11-15T07:33:47;76.47;;;33.10;;
56331;SDS011;42237;53.340;6.812;2022-11-15T07:36:13;69.75;;;31.73;;
56331;SDS011;42237;53.340;6.812;2022-11-15T07:38:38;74.10;;;31.20;;
56331;SDS011;42237;53.340;6.812;2022-11-15T07:41:05;74.97;;;31.80;;
56331;SDS011;42237;53.340;6.812;2022-11-15T07:43:31;70.22;;;33.53;;
56331;SDS011;42237;53.340;6.812;2022-11-15T07:46:04;74.25;;;32.65;;
56331;SDS011;42237;53.340;6.812;2022-11-15T07:48:34;72.43;;;32.83;;
56331;SDS011;42237;53.340;6.812;2022-11-15T07:51:00;66.68;;;30.52;;
56331;SDS011;42237;53.340;6.812;2022-11-15T07:53:26;57.22;;;28.25;;
56331;SDS011;42237;53.340;6.812;2022-11-15T07:55:51;55.78;;;28.80;;
56331;SDS011;42237;53.340;6.812;2022-11-15T07:58:18;58.15;;;27.05;;
56331;SDS011;42237;53.340;6.812;2022-11-15T08:00:44;58.72;;;27.00;;
56331;SDS011;42237;53.340;6.812;2022-11-15T08:03:14;56.55;;;26.75;;
56331;SDS011;42237;53.340;6.812;2022-11-15T08:05:41;55.42;;;26.38;;
56331;SDS011;42237;53.340;6.812;2022-11-15T08:08:08;48.83;;;26.50;;
56331;SDS011;42237;53.340;6.812;2022-11-15T08:10:36;52.53;;;26.10;;
56331;SDS011;42237;53.340;6.812;2022-11-15T08:15:32;46.95;;;26.00;;
56331;SDS011;42237;53.340;6.812;2022-11-15T08:17:59;50.78;;;25.08;;
56331;SDS011;42237;53.340;6.812;2022-11-15T08:20:28;52.17;;;25.30;;
56331;SDS011;42237;53.340;6.812;2022-11-15T08:22:58;51.22;;;24.98;;
56331;SDS011;42237;53.340;6.812;2022-11-15T08:25:25;47.22;;;24.05;;
56331;SDS011;42237;53.340;6.812;2022-11-15T08:27:53;44.38;;;23.13;;
56331;SDS011;42237;53.340;6.812;2022-11-15T08:30:20;52.05;;;24.65;;
56331;SDS011;42237;53.340;6.812;2022-11-15T08:32:46;45.17;;;24.20;;
56331;SDS011;42237;53.340;6.812;2022-11-15T08:35:12;50.92;;;23.98;;
56331;SDS011;42237;53.340;6.812;2022-11-15T08:37:38;44.30;;;22.60;;
56331;SDS011;42237;53.340;6.812;2022-11-15T08:40:04;47.53;;;23.42;;
56331;SDS011;42237;53.340;6.812;2022-11-15T08:42:30;46.40;;;23.92;;
56331;SDS011;42237;53.340;6.812;2022-11-15T08:44:56;38.50;;;22.90;;
56331;SDS011;42237;53.340;6.812;2022-11-15T08:47:22;39.50;;;22.27;;
56331;SDS011;42237;53.340;6.812;2022-11-15T08:49:48;41.22;;;21.55;;
56331;SDS011;42237;53.340;6.812;2022-11-15T08:52:14;37.45;;;21.85;;
56331;SDS011;42237;53.340;6.812;2022-11-15T08:54:40;40.33;;;21.35;;
56331;SDS011;42237;53.340;6.812;2022-11-15T08:57:06;39.75;;;21.17;;
56331;SDS011;42237;53.340;6.812;2022-11-15T08:59:32;37.13;;;20.98;;
56331;SDS011;42237;53.340;6.812;2022-11-15T09:01:57;40.17;;;21.10;;
56331;SDS011;42237;53.340;6.812;2022-11-15T09:04:23;40.72;;;20.38;;
56331;SDS011;42237;53.340;6.812;2022-11-15T09:06:49;42.08;;;20.70;;
56331;SDS011;42237;53.340;6.812;2022-11-15T09:09:14;37.20;;;21.10;;
56331;SDS011;42237;53.340;6.812;2022-11-15T09:11:40;34.85;;;20.13;;
56331;SDS011;42237;53.340;6.812;2022-11-15T09:14:06;38.08;;;20.85;;
56331;SDS011;42237;53.340;6.812;2022-11-15T09:16:31;35.22;;;20.60;;
56331;SDS011;42237;53.340;6.812;2022-11-15T09:18:57;37.13;;;20.85;;
56331;SDS011;42237;53.340;6.812;2022-11-15T09:21:23;40.10;;;21.80;;
56331;SDS011;42237;53.340;6.812;2022-11-15T09:23:51;33.95;;;20.48;;
56331;SDS011;42237;53.340;6.812;2022-11-15T09:26:17;38.85;;;22.25;;
56331;SDS011;42237;53.340;6.812;2022-11-15T09:28:43;38.70;;;22.25;;
56331;SDS011;42237;53.340;6.812;2022-11-15T09:31:09;39.13;;;22.10;;
56331;SDS011;42237;53.340;6.812;2022-11-15T09:33:35;36.13;;;21.38;;
56331;SDS011;42237;53.340;6.812;2022-11-15T09:36:08;37.03;;;21.45;;
56331;SDS011;42237;53.340;6.812;2022-11-15T09:38:34;35.03;;;21.08;;
56331;SDS011;42237;53.340;6.812;2022-11-15T09:46:42;37.13;;;21.77;;
56331;SDS011;42237;53.340;6.812;2022-11-15T09:49:17;39.22;;;23.13;;
56331;SDS011;42237;53.340;6.812;2022-11-15T09:51:47;37.20;;;22.73;;
56331;SDS011;42237;53.340;6.812;2022-11-15T09:54:34;38.35;;;22.77;;
56331;SDS011;42237;53.340;6.812;2022-11-15T09:57:04;43.67;;;23.80;;
56331;SDS011;42237;53.340;6.812;2022-11-15T10:05:10;41.97;;;23.45;;
56331;SDS011;42237;53.340;6.812;2022-11-15T10:07:51;38.10;;;22.27;;
56331;SDS011;42237;53.340;6.812;2022-11-15T10:13:09;35.63;;;21.27;;
56331;SDS011;42237;53.340;6.812;2022-11-15T10:15:42;37.05;;;19.88;;
56331;SDS011;42237;53.340;6.812;2022-11-15T10:18:14;35.63;;;20.00;;
56331;SDS011;42237;53.340;6.812;2022-11-15T10:20:57;34.35;;;21.27;;
56331;SDS011;42237;53.340;6.812;2022-11-15T10:23:24;37.28;;;21.23;;
56331;SDS011;42237;53.340;6.812;2022-11-15T10:26:00;37.38;;;21.63;;
56331;SDS011;42237;53.340;6.812;2022-11-15T10:28:27;40.60;;;22.77;;
56331;SDS011;42237;53.340;6.812;2022-11-15T10:30:55;34.13;;;21.17;;
56331;SDS011;42237;53.340;6.812;2022-11-15T10:33:31;35.60;;;21.42;;
56331;SDS011;42237;53.340;6.812;2022-11-15T10:46:44;33.45;;;20.77;;
56331;SDS011;42237;53.340;6.812;2022-11-15T10:49:27;34.90;;;20.85;;
56331;SDS011;42237;53.340;6.812;2022-11-15T10:51:55;36.92;;;20.80;;
56331;SDS011;42237;53.340;6.812;2022-11-15T10:57:29;33.53;;;19.55;;
56331;SDS011;42237;53.340;6.812;2022-11-15T10:59:59;33.67;;;19.75;;
56331;SDS011;42237;53.340;6.812;2022-11-15T11:07:58;31.10;;;20.92;;
56331;SDS011;42237;53.340;6.812;2022-11-15T11:10:26;30.55;;;19.23;;
56331;SDS011;42237;53.340;6.812;2022-11-15T11:12:52;32.17;;;20.23;;
56331;SDS011;42237;53.340;6.812;2022-11-15T11:15:18;33.83;;;21.40;;
56331;SDS011;42237;53.340;6.812;2022-11-15T11:17:57;34.50;;;20.27;;
56331;SDS011;42237;53.340;6.812;2022-11-15T11:20:38;37.58;;;19.42;;
56331;SDS011;42237;53.340;6.812;2022-11-15T11:31:20;32.80;;;20.77;;
56331;SDS011;42237;53.340;6.812;2022-11-15T11:33:55;37.30;;;20.63;;
56331;SDS011;42237;53.340;6.812;2022-11-15T11:37:04;32.97;;;19.90;;
56331;SDS011;42237;53.340;6.812;2022-11-15T11:50:37;34.25;;;20.13;;
56331;SDS011;42237;53.340;6.812;2022-11-15T11:53:12;27.55;;;17.75;;
56331;SDS011;42237;53.340;6.812;2022-11-15T11:56:12;28.60;;;18.23;;
56331;SDS011;42237;53.340;6.812;2022-11-15T11:58:46;25.50;;;17.65;;
56331;SDS011;42237;53.340;6.812;2022-11-15T12:01:55;26.83;;;17.85;;
56331;SDS011;42237;53.340;6.812;2022-11-15T12:06:56;28.52;;;18.17;;
56331;SDS011;42237;53.340;6.812;2022-11-15T12:12:35;30.20;;;18.88;;
56331;SDS011;42237;53.340;6.812;2022-11-15T12:17:39;29.77;;;18.90;;
56331;SDS011;42237;53.340;6.812;2022-11-15T12:20:14;28.05;;;19.08;;
56331;SDS011;42237;53.340;6.812;2022-11-15T12:22:43;28.80;;;17.63;;
56331;SDS011;42237;53.340;6.812;2022-11-15T12:25:46;24.45;;;16.55;;
56331;SDS011;42237;53.340;6.812;2022-11-15T12:31:45;23.83;;;15.73;;
56331;SDS011;42237;53.340;6.812;2022-11-15T12:34:04;21.98;;;14.13;;
56331;SDS011;42237;53.340;6.812;2022-11-15T12:36:48;19.80;;;14.15;;
56331;SDS011;42237;53.340;6.812;2022-11-15T12:39:15;20.00;;;14.10;;
56331;SDS011;42237;53.340;6.812;2022-11-15T12:41:42;19.52;;;13.52;;
56331;SDS011;42237;53.340;6.812;2022-11-15T12:45:22;21.42;;;13.57;;
56331;SDS011;42237;53.340;6.812;2022-11-15T12:47:25;19.05;;;13.25;;
56331;SDS011;42237;53.340;6.812;2022-11-15T12:49:51;20.50;;;13.48;;
56331;SDS011;42237;53.340;6.812;2022-11-15T12:52:17;19.80;;;11.73;;
56331;SDS011;42237;53.340;6.812;2022-11-15T12:55:28;14.27;;;9.77;;
56331;SDS011;42237;53.340;6.812;2022-11-15T12:57:56;13.57;;;7.63;;
56331;SDS011;42237;53.340;6.812;2022-11-15T13:00:51;10.23;;;6.57;;
56331;SDS011;42237;53.340;6.812;2022-11-15T13:03:18;10.77;;;6.70;;
56331;SDS011;42237;53.340;6.812;2022-11-15T13:05:51;12.13;;;6.72;;
56331;SDS011;42237;53.340;6.812;2022-11-15T13:08:35;9.23;;;6.13;;
56331;SDS011;42237;53.340;6.812;2022-11-15T13:20:28;12.13;;;6.85;;
56331;SDS011;42237;53.340;6.812;2022-11-15T13:25:52;8.98;;;5.45;;
56331;SDS011;42237;53.340;6.812;2022-11-15T13:30:57;10.45;;;4.05;;
56331;SDS011;42237;53.340;6.812;2022-11-15T13:33:34;8.00;;;4.70;;
56331;SDS011;42237;53.340;6.812;2022-11-15T13:36:07;9.32;;;4.30;;
56331;SDS011;42237;53.340;6.812;2022-11-15T13:38:39;13.73;;;8.07;;
56331;SDS011;42237;53.340;6.812;2022-11-15T13:41:19;12.30;;;6.15;;
56331;SDS011;42237;53.340;6.812;2022-11-15T13:43:47;9.35;;;4.57;;
56331;SDS011;42237;53.340;6.812;2022-11-15T13:46:24;10.93;;;5.47;;
56331;SDS011;42237;53.340;6.812;2022-11-15T13:51:35;9.65;;;4.95;;
56331;SDS011;42237;53.340;6.812;2022-11-15T13:54:30;8.17;;;4.57;;
56331;SDS011;42237;53.340;6.812;2022-11-15T13:59:26;8.63;;;4.50;;
56331;SDS011;42237;53.340;6.812;2022-11-15T14:01:57;9.43;;;4.78;;
56331;SDS011;42237;53.340;6.812;2022-11-15T14:04:26;7.82;;;4.72;;
56331;SDS011;42237;53.340;6.812;2022-11-15T14:06:59;7.22;;;4.15;;
56331;SDS011;42237;53.340;6.812;2022-11-15T14:12:00;9.98;;;4.63;;
56331;SDS011;42237;53.340;6.812;2022-11-15T14:14:28;9.38;;;4.88;;
56331;SDS011;42237;53.340;6.812;2022-11-15T14:16:58;6.88;;;4.57;;
56331;SDS011;42237;53.340;6.812;2022-11-15T14:28:07;9.07;;;4.72;;
56331;SDS011;42237;53.340;6.812;2022-11-15T14:30:39;10.18;;;4.70;;
56331;SDS011;42237;53.340;6.812;2022-11-15T14:33:17;6.88;;;4.55;;
56331;SDS011;42237;53.340;6.812;2022-11-15T14:35:48;8.18;;;4.47;;
56331;SDS011;42237;53.340;6.812;2022-11-15T14:38:14;10.55;;;5.15;;
56331;SDS011;42237;53.340;6.812;2022-11-15T14:40:40;8.60;;;4.82;;
56331;SDS011;42237;53.340;6.812;2022-11-15T14:43:08;11.63;;;5.00;;
56331;SDS011;42237;53.340;6.812;2022-11-15T14:45:36;7.63;;;4.63;;
56331;SDS011;42237;53.340;6.812;2022-11-15T14:48:01;7.97;;;4.90;;
56331;SDS011;42237;53.340;6.812;2022-11-15T14:50:27;7.50;;;4.20;;
56331;SDS011;42237;53.340;6.812;2022-11-15T14:52:53;7.53;;;4.50;;
56331;SDS011;42237;53.340;6.812;2022-11-15T14:55:26;8.77;;;4.25;;
56331;SDS011;42237;53.340;6.812;2022-11-15T14:57:54;8.05;;;4.60;;
56331;SDS011;42237;53.340;6.812;2022-11-15T15:00:20;5.22;;;3.65;;
56331;SDS011;42237;53.340;6.812;2022-11-15T15:02:46;8.77;;;4.47;;
56331;SDS011;42237;53.340;6.812;2022-11-15T15:05:20;10.80;;;4.45;;
56331;SDS011;42237;53.340;6.812;2022-11-15T15:07:46;8.15;;;3.90;;
56331;SDS011;42237;53.340;6.812;2022-11-15T15:10:13;8.43;;;3.97;;
56331;SDS011;42237;53.340;6.812;2022-11-15T15:12:40;7.75;;;4.35;;
56331;SDS011;42237;53.340;6.812;2022-11-15T15:15:06;7.10;;;4.82;;
56331;SDS011;42237;53.340;6.812;2022-11-15T15:17:38;7.82;;;4.35;;
56331;SDS011;42237;53.340;6.812;2022-11-15T15:20:03;6.75;;;4.43;;
56331;SDS011;42237;53.340;6.812;2022-11-15T15:22:29;12.73;;;4.72;;
56331;SDS011;42237;53.340;6.812;2022-11-15T15:24:55;6.93;;;4.35;;
56331;SDS011;42237;53.340;6.812;2022-11-15T15:27:21;6.70;;;3.95;;
56331;SDS011;42237;53.340;6.812;2022-11-15T15:29:47;6.63;;;4.40;;
56331;SDS011;42237;53.340;6.812;2022-11-15T15:32:12;9.48;;;4.93;;
56331;SDS011;42237;53.340;6.812;2022-11-15T15:34:38;8.55;;;4.50;;
56331;SDS011;42237;53.340;6.812;2022-11-15T15:39:52;7.40;;;4.88;;
56331;SDS011;42237;53.340;6.812;2022-11-15T15:42:21;7.57;;;4.47;;
56331;SDS011;42237;53.340;6.812;2022-11-15T15:44:48;7.20;;;3.97;;
56331;SDS011;42237;53.340;6.812;2022-11-15T15:47:21;6.55;;;4.28;;
56331;SDS011;42237;53.340;6.812;2022-11-15T15:49:51;10.43;;;4.40;;
56331;SDS011;42237;53.340;6.812;2022-11-15T15:52:17;9.20;;;4.50;;
56331;SDS011;42237;53.340;6.812;2022-11-15T15:54:42;5.82;;;4.15;;
56331;SDS011;42237;53.340;6.812;2022-11-15T15:57:08;7.57;;;4.25;;
56331;SDS011;42237;53.340;6.812;2022-11-15T15:59:37;6.32;;;4.80;;
56331;SDS011;42237;53.340;6.812;2022-11-15T16:02:03;8.75;;;4.70;;
56331;SDS011;42237;53.340;6.812;2022-11-15T16:04:29;8.30;;;4.93;;
56331;SDS011;42237;53.340;6.812;2022-11-15T16:06:59;10.10;;;5.82;;
56331;SDS011;42237;53.340;6.812;2022-11-15T16:09:25;7.65;;;5.30;;
56331;SDS011;42237;53.340;6.812;2022-11-15T16:12:09;7.72;;;5.35;;
56331;SDS011;42237;53.340;6.812;2022-11-15T16:14:35;7.13;;;5.20;;
56331;SDS011;42237;53.340;6.812;2022-11-15T16:17:01;7.60;;;5.20;;
56331;SDS011;42237;53.340;6.812;2022-11-15T16:19:30;8.45;;;5.68;;
56331;SDS011;42237;53.340;6.812;2022-11-15T16:32:38;9.38;;;5.38;;
56331;SDS011;42237;53.340;6.812;2022-11-15T16:38:47;9.25;;;5.25;;
56331;SDS011;42237;53.340;6.812;2022-11-15T16:41:13;7.55;;;4.60;;
56331;SDS011;42237;53.340;6.812;2022-11-15T16:43:40;7.97;;;4.75;;
56331;SDS011;42237;53.340;6.812;2022-11-15T16:46:12;7.38;;;5.80;;
56331;SDS011;42237;53.340;6.812;2022-11-15T16:48:40;6.13;;;4.88;;
56331;SDS011;42237;53.340;6.812;2022-11-15T16:51:06;9.10;;;5.28;;
56331;SDS011;42237;53.340;6.812;2022-11-15T16:53:32;8.68;;;5.03;;
56331;SDS011;42237;53.340;6.812;2022-11-15T16:55:58;9.32;;;5.43;;
56331;SDS011;42237;53.340;6.812;2022-11-15T16:58:23;8.10;;;5.35;;
56331;SDS011;42237;53.340;6.812;2022-11-15T17:00:50;9.45;;;5.45;;
56331;SDS011;42237;53.340;6.812;2022-11-15T17:03:17;6.95;;;5.20;;
56331;SDS011;42237;53.340;6.812;2022-11-15T17:05:43;7.47;;;5.15;;
56331;SDS011;42237;53.340;6.812;2022-11-15T17:08:09;8.20;;;5.20;;
56331;SDS011;42237;53.340;6.812;2022-11-15T17:10:37;7.55;;;5.15;;
56331;SDS011;42237;53.340;6.812;2022-11-15T17:13:05;6.55;;;5.35;;
56331;SDS011;42237;53.340;6.812;2022-11-15T17:15:31;7.15;;;5.13;;